Terminal Aerodrome Forecast
Issued by NWS

Home | Current Version | Previous Version | Text Only | Print | Product List | Glossary On
Versions: 1 2 3 4 5 6 7 8 9 10 11 12 13 14 15
000
FTUS45 KRIW 261300 AAA
TAFCPR
TAF AMD
KCPR 261300Z 2613/2712 VRB05KT P6SM -SN OVC045
     FM261600 24010KT P6SM SCT030 BKN050
     FM261900 23015G25KT P6SM SCT040 BKN080
     FM270700 23020G30KT P6SM SCT100 BKN200=

USA.gov is the U.S. government's official web portal to all federal, state and local government web resources and services.